createdAt,value
2023-05-12T00:02:15.910Z,4.70
2023-05-12T00:04:46.635Z,5.50
2023-05-12T00:07:17.410Z,4.70
2023-05-12T00:09:48.099Z,5.30
2023-05-12T00:12:18.859Z,5.10
2023-05-12T00:14:49.527Z,4.80
2023-05-12T00:17:20.230Z,5.70
2023-05-12T00:19:50.935Z,4.80
2023-05-12T00:22:21.617Z,5.00
2023-05-12T00:24:52.247Z,5.10
2023-05-12T00:27:22.848Z,5.20
2023-05-12T00:29:53.447Z,5.30
2023-05-12T00:32:24.205Z,5.20
2023-05-12T00:34:54.772Z,4.90
2023-05-12T00:37:25.511Z,5.50
2023-05-12T00:39:56.175Z,5.70
2023-05-12T00:42:26.820Z,5.20
2023-05-12T00:44:57.464Z,5.40
2023-05-12T00:47:28.520Z,5.20
2023-05-12T00:49:59.764Z,5.10
2023-05-12T00:52:30.468Z,5.50
2023-05-12T00:55:02.647Z,5.20
2023-05-12T00:57:34.287Z,5.30
2023-05-12T01:00:05.579Z,5.70
2023-05-12T01:02:36.752Z,5.70
2023-05-12T01:05:08.542Z,5.50
2023-05-12T01:07:40.540Z,5.10
2023-05-12T01:10:21.126Z,5.80
2023-05-12T01:12:52.140Z,5.20
2023-05-12T01:15:22.803Z,5.50
2023-05-12T01:17:57.434Z,5.70
2023-05-12T01:20:28.808Z,6.00
2023-05-12T01:23:00.281Z,5.80
2023-05-12T01:25:34.246Z,6.10
2023-05-12T01:28:06.604Z,6.00
2023-05-12T01:30:38.979Z,6.00
2023-05-12T01:33:10.151Z,6.90
2023-05-12T01:35:40.749Z,6.30
2023-05-12T01:38:11.439Z,6.60
2023-05-12T01:40:42.025Z,6.80
2023-05-12T01:43:12.787Z,8.00
2023-05-12T01:48:12.649Z,6.20
2023-05-12T01:50:43.271Z,6.50
2023-05-12T01:53:13.904Z,6.70
2023-05-12T01:55:44.765Z,6.20
2023-05-12T01:58:15.392Z,6.00
2023-05-12T02:00:46.049Z,5.90
2023-05-12T02:03:16.994Z,5.80
2023-05-12T02:08:16.768Z,6.30
2023-05-12T02:10:47.663Z,6.00
2023-05-12T02:13:18.362Z,5.90
2023-05-12T02:15:48.950Z,5.80
2023-05-12T02:18:19.655Z,6.00
2023-05-12T02:20:50.324Z,6.20
2023-05-12T02:23:21.059Z,5.90
2023-05-12T02:25:51.648Z,6.90
2023-05-12T02:28:22.583Z,6.30
2023-05-12T02:33:22.969Z,5.50
2023-05-12T02:35:53.926Z,5.40
2023-05-12T02:38:24.585Z,6.50
2023-05-12T02:40:55.326Z,6.20
2023-05-12T02:43:25.972Z,5.70
2023-05-12T02:45:57.357Z,5.70
2023-05-12T02:48:28.084Z,5.70
2023-05-12T02:50:58.703Z,6.70
2023-05-12T02:53:29.596Z,5.80
2023-05-12T02:56:00.952Z,5.80
2023-05-12T02:58:31.828Z,5.90
2023-05-12T03:01:10.218Z,6.00
2023-05-12T03:03:41.907Z,5.90
2023-05-12T03:06:12.777Z,5.90
2023-05-12T03:08:43.462Z,5.60
2023-05-12T03:11:14.063Z,5.50
2023-05-12T03:13:44.754Z,6.40
2023-05-12T03:16:15.633Z,5.80
2023-05-12T03:18:47.093Z,5.60
2023-05-12T03:21:17.756Z,5.60
2023-05-12T03:23:48.386Z,5.80
2023-05-12T03:26:19.007Z,6.20
2023-05-12T03:28:49.660Z,6.70
2023-05-12T03:31:20.482Z,5.80
2023-05-12T03:33:51.416Z,5.90
2023-05-12T03:38:51.166Z,5.50
2023-05-12T03:41:21.820Z,5.80
2023-05-12T03:43:52.420Z,5.70
2023-05-12T03:46:23.165Z,7.00
2023-05-12T03:48:53.976Z,5.70
2023-05-12T03:51:24.546Z,6.00
2023-05-12T03:53:55.255Z,5.40
2023-05-12T03:56:25.861Z,6.20
2023-05-12T03:58:56.904Z,5.50
2023-05-12T04:03:56.731Z,6.00
2023-05-12T04:06:27.561Z,5.70
2023-05-12T04:08:58.743Z,5.90
2023-05-12T04:11:29.481Z,5.30
2023-05-12T04:14:00.162Z,5.40
2023-05-12T04:16:30.761Z,5.50
2023-05-12T04:21:30.836Z,5.30
2023-05-12T04:24:01.437Z,4.90
2023-05-12T04:26:32.102Z,4.90
2023-05-12T04:29:05.267Z,4.40
2023-05-12T04:31:42.040Z,4.50
2023-05-12T04:34:12.710Z,4.10
2023-05-12T04:36:43.339Z,6.30
2023-05-12T04:39:13.950Z,4.80
2023-05-12T04:41:44.645Z,4.50
2023-05-12T04:44:15.237Z,4.80
2023-05-12T04:46:45.892Z,4.90
2023-05-12T04:49:16.530Z,4.10
2023-05-12T04:51:47.167Z,4.50
2023-05-12T04:54:17.873Z,4.00
2023-05-12T04:56:48.517Z,4.20
2023-05-12T04:59:19.428Z,4.70
2023-05-12T05:01:50.358Z,4.10
2023-05-12T05:04:21.141Z,4.30
2023-05-12T05:06:51.926Z,4.90
2023-05-12T05:09:23.072Z,4.70
2023-05-12T05:11:53.780Z,4.30
2023-05-12T05:14:24.467Z,4.80
2023-05-12T05:16:55.223Z,4.60
2023-05-12T05:19:39.123Z,4.20
2023-05-12T05:22:16.917Z,3.90
2023-05-12T05:24:47.496Z,4.20
2023-05-12T05:27:19.609Z,4.90
2023-05-12T05:29:50.335Z,4.80
2023-05-12T05:32:20.981Z,4.80
2023-05-12T05:34:51.667Z,4.90
2023-05-12T05:37:22.333Z,5.50
2023-05-12T05:39:53.010Z,4.80
2023-05-12T05:42:23.669Z,6.20
2023-05-12T05:44:54.342Z,5.20
2023-05-12T05:47:25.015Z,4.90
2023-05-12T05:49:55.789Z,4.80
2023-05-12T05:52:28.752Z,5.30
2023-05-12T05:55:00.202Z,5.90
2023-05-12T05:57:30.975Z,6.30
2023-05-12T06:02:30.839Z,6.10
2023-05-12T06:05:01.637Z,5.50
2023-05-12T06:07:32.255Z,5.40
2023-05-12T06:10:03.011Z,5.60
2023-05-12T06:15:02.729Z,5.00
2023-05-12T06:17:33.486Z,5.20
2023-05-12T06:22:33.301Z,5.60
2023-05-12T06:25:05.526Z,4.70
2023-05-12T06:27:36.202Z,5.60
2023-05-12T06:30:10.385Z,6.30
2023-05-12T06:32:41.126Z,5.20
2023-05-12T06:35:12.080Z,4.80
2023-05-12T06:40:15.170Z,5.20
2023-05-12T06:42:45.813Z,5.10
2023-05-12T06:45:16.464Z,5.10
2023-05-12T06:47:47.261Z,5.30
2023-05-12T06:52:47.207Z,4.50
2023-05-12T06:55:17.954Z,4.70
2023-05-12T06:57:48.752Z,4.90
2023-05-12T07:00:20.412Z,5.00
2023-05-12T07:02:51.318Z,5.10
2023-05-12T07:07:59.283Z,4.90
2023-05-12T07:10:29.904Z,5.10
2023-05-12T07:13:00.677Z,5.20
2023-05-12T07:18:03.538Z,4.80
2023-05-12T07:20:34.564Z,4.70
2023-05-12T07:23:05.252Z,5.40
2023-05-12T07:25:36.092Z,4.70
2023-05-12T07:28:07.098Z,4.60
2023-05-12T07:30:38.469Z,5.10
2023-05-12T07:33:09.250Z,4.10
2023-05-12T07:35:40.589Z,4.30
2023-05-12T07:38:11.265Z,4.60
2023-05-12T07:40:41.943Z,4.20
2023-05-12T07:43:12.728Z,4.10
2023-05-12T07:48:12.859Z,4.20
2023-05-12T07:50:45.664Z,4.10
2023-05-12T07:53:16.611Z,4.80
2023-05-12T07:58:16.275Z,4.00
2023-05-12T08:00:46.915Z,3.80
2023-05-12T08:03:17.710Z,3.80
2023-05-12T08:05:48.821Z,3.90
2023-05-12T08:08:19.459Z,3.60
2023-05-12T08:10:50.085Z,4.70
2023-05-12T08:13:20.864Z,4.00
2023-05-12T08:18:21.891Z,3.30
2023-05-12T08:20:52.700Z,4.30
2023-05-12T08:23:23.347Z,4.00
2023-05-12T08:28:23.086Z,3.70
2023-05-12T08:30:53.747Z,3.20
2023-05-12T08:33:24.560Z,3.30
2023-05-12T08:38:24.320Z,3.40
2023-05-12T08:41:08.144Z,3.10
2023-05-12T08:43:44.307Z,3.50
2023-05-12T08:46:15.663Z,3.40
2023-05-12T08:48:48.128Z,4.20
2023-05-12T08:51:19.905Z,3.70
2023-05-12T08:53:53.509Z,2.90
2023-05-12T08:58:58.605Z,2.90
2023-05-12T09:01:30.206Z,3.00
2023-05-12T09:04:00.975Z,2.60
2023-05-12T09:06:31.970Z,2.90
2023-05-12T09:09:03.124Z,2.60
2023-05-12T09:11:33.794Z,2.70
2023-05-12T09:21:38.137Z,2.70
2023-05-12T09:24:09.362Z,2.80
2023-05-12T09:26:48.923Z,2.70
2023-05-12T09:29:30.649Z,2.80
2023-05-12T09:32:04.105Z,2.60
2023-05-12T09:34:36.829Z,2.70
2023-05-12T09:37:09.337Z,2.70
2023-05-12T09:39:39.946Z,2.60
2023-05-12T09:44:43.045Z,2.50
2023-05-12T09:47:13.922Z,2.90
2023-05-12T09:49:51.800Z,2.70
2023-05-12T09:52:23.498Z,2.60
2023-05-12T09:54:54.152Z,2.50
2023-05-12T09:59:55.898Z,2.80
2023-05-12T10:02:27.904Z,3.20
2023-05-12T10:07:38.099Z,3.10
2023-05-12T10:10:11.496Z,3.20
2023-05-12T10:12:42.494Z,3.00
2023-05-12T10:15:16.901Z,3.60
2023-05-12T10:17:50.299Z,3.10
2023-05-12T10:20:23.029Z,3.00
2023-05-12T10:22:56.045Z,3.20
2023-05-12T10:25:26.996Z,3.10
2023-05-12T10:27:59.041Z,3.80
2023-05-12T10:30:30.026Z,3.00
2023-05-12T10:33:01.160Z,2.80
2023-05-12T10:35:36.044Z,2.60
2023-05-12T10:38:09.831Z,2.60
2023-05-12T10:40:53.001Z,3.10
2023-05-12T10:43:28.515Z,3.40
2023-05-12T10:46:10.156Z,3.00
2023-05-12T10:48:53.341Z,3.20
2023-05-12T10:51:26.442Z,3.50
2023-05-12T10:54:03.488Z,2.80
2023-05-12T10:56:44.963Z,2.90
2023-05-12T10:59:18.394Z,2.90
2023-05-12T11:02:02.187Z,3.00
2023-05-12T11:04:46.038Z,3.00
2023-05-12T11:10:26.533Z,3.30
2023-05-12T11:12:59.035Z,2.60
2023-05-12T11:15:32.436Z,2.80
2023-05-12T11:18:05.282Z,2.60
2023-05-12T11:21:31.822Z,2.60
2023-05-12T11:24:03.397Z,2.50
2023-05-12T11:26:35.450Z,2.40
2023-05-12T11:29:06.304Z,2.60
2023-05-12T11:31:38.221Z,2.30
2023-05-12T11:34:12.963Z,2.50
2023-05-12T11:36:44.713Z,2.30
2023-05-12T11:39:25.987Z,2.40
2023-05-12T11:42:09.459Z,2.80
2023-05-12T11:44:49.929Z,2.60
2023-05-12T11:47:21.403Z,2.20
2023-05-12T11:49:53.546Z,2.40
2023-05-12T11:52:25.215Z,2.80
2023-05-12T11:54:59.407Z,2.50
2023-05-12T11:57:31.839Z,2.50
2023-05-12T12:00:04.703Z,2.20
2023-05-12T12:02:36.022Z,2.00
2023-05-12T12:05:18.549Z,3.30
2023-05-12T12:07:49.485Z,2.70
2023-05-12T12:10:20.477Z,2.50
2023-05-12T12:12:51.483Z,2.30
2023-05-12T12:15:22.413Z,2.50
2023-05-12T12:17:53.237Z,2.60
2023-05-12T12:20:24.170Z,2.60
2023-05-12T12:22:55.390Z,2.30
2023-05-12T12:25:26.304Z,2.30
2023-05-12T12:27:57.019Z,2.50
2023-05-12T12:30:33.465Z,2.50
2023-05-12T12:33:04.240Z,2.60
2023-05-12T12:35:34.878Z,2.30
2023-05-12T12:38:07.721Z,2.60
2023-05-12T12:40:38.435Z,2.50
2023-05-12T12:43:09.373Z,2.40
2023-05-12T12:45:42.700Z,2.40
2023-05-12T12:48:14.698Z,2.40
2023-05-12T12:50:45.487Z,2.60
2023-05-12T12:53:16.216Z,2.30
2023-05-12T12:55:46.891Z,2.30
2023-05-12T12:58:17.668Z,2.80
2023-05-12T13:00:48.407Z,2.00
2023-05-12T13:03:20.480Z,2.30
2023-05-12T13:05:51.295Z,2.60
2023-05-12T13:08:22.035Z,2.10
2023-05-12T13:10:52.691Z,2.10
2023-05-12T13:13:23.380Z,2.10
2023-05-12T13:15:55.133Z,1.80
2023-05-12T13:18:35.977Z,2.80
2023-05-12T13:21:07.778Z,2.30
2023-05-12T13:23:38.688Z,2.50
2023-05-12T13:26:09.400Z,2.60
2023-05-12T13:28:40.720Z,3.00
2023-05-12T13:31:11.438Z,2.50
2023-05-12T13:33:52.437Z,2.40
2023-05-12T13:36:23.072Z,2.70
2023-05-12T13:38:53.897Z,2.60
2023-05-12T13:41:24.521Z,2.30
2023-05-12T13:43:55.169Z,2.60
2023-05-12T13:46:25.849Z,2.40
2023-05-12T13:48:56.597Z,2.50
2023-05-12T13:51:27.677Z,2.20
2023-05-12T13:53:58.324Z,2.30
2023-05-12T13:56:28.989Z,2.30
2023-05-12T13:58:59.712Z,2.30
2023-05-12T14:01:30.839Z,3.00
2023-05-12T14:04:01.557Z,2.40
2023-05-12T14:06:32.209Z,2.30
2023-05-12T14:09:03.622Z,2.30
2023-05-12T14:11:34.665Z,2.40
2023-05-12T14:14:05.418Z,2.30
2023-05-12T14:16:36.061Z,2.70
2023-05-12T14:19:10.647Z,2.40
2023-05-12T14:21:41.331Z,2.20
2023-05-12T14:24:12.092Z,2.50
2023-05-12T14:26:42.662Z,2.30
2023-05-12T14:29:13.346Z,2.30
2023-05-12T14:31:44.063Z,2.20
2023-05-12T14:34:14.833Z,2.50
2023-05-12T14:36:45.475Z,2.10
2023-05-12T14:39:16.108Z,2.70
2023-05-12T14:41:46.772Z,2.40
2023-05-12T14:44:17.399Z,2.20
2023-05-12T14:46:48.362Z,2.60
2023-05-12T14:49:19.129Z,2.70
2023-05-12T14:51:50.023Z,2.50
2023-05-12T14:54:25.746Z,2.30
2023-05-12T14:56:56.966Z,2.50
2023-05-12T14:59:28.875Z,2.50
2023-05-12T15:01:59.609Z,2.80
2023-05-12T15:04:30.462Z,2.60
2023-05-12T15:07:01.441Z,2.30
2023-05-12T15:09:32.102Z,2.50
2023-05-12T15:12:02.766Z,2.40
2023-05-12T15:14:33.801Z,2.50
2023-05-12T15:17:04.668Z,2.30
2023-05-12T15:19:35.430Z,2.70
2023-05-12T15:22:06.281Z,2.80
2023-05-12T15:24:36.988Z,2.30
2023-05-12T15:27:07.874Z,3.10
2023-05-12T15:29:40.771Z,2.70
2023-05-12T15:32:11.425Z,2.10
2023-05-12T15:34:42.114Z,2.50
2023-05-12T15:37:13.109Z,2.30
2023-05-12T15:39:43.982Z,2.70
2023-05-12T15:42:19.231Z,2.90
2023-05-12T15:44:53.036Z,2.90
2023-05-12T15:47:23.685Z,2.80
2023-05-12T15:49:54.289Z,3.00
2023-05-12T15:52:25.017Z,2.60
2023-05-12T15:54:55.721Z,2.40
2023-05-12T15:57:26.342Z,2.70
2023-05-12T15:59:59.964Z,2.60
2023-05-12T16:02:30.912Z,2.40
2023-05-12T16:05:01.719Z,2.90
2023-05-12T16:07:32.820Z,2.20
2023-05-12T16:10:03.718Z,3.00
2023-05-12T16:12:34.355Z,2.90
2023-05-12T16:17:34.294Z,3.20
2023-05-12T16:20:07.899Z,3.20
2023-05-12T16:22:38.523Z,2.60
2023-05-12T16:27:39.278Z,2.30
2023-05-12T16:32:40.368Z,2.30
2023-05-12T16:37:42.014Z,2.40
2023-05-12T16:42:42.138Z,2.50
2023-05-12T16:45:14.115Z,2.70
2023-05-12T16:47:45.153Z,2.90
2023-05-12T16:50:16.042Z,2.60
2023-05-12T16:52:46.698Z,2.50
2023-05-12T16:55:21.577Z,2.80
2023-05-12T16:57:52.605Z,2.80
2023-05-12T17:00:23.428Z,2.80
2023-05-12T17:02:55.192Z,2.90
2023-05-12T17:05:26.120Z,2.40
2023-05-12T17:07:56.770Z,3.00
2023-05-12T17:12:56.546Z,2.80
2023-05-12T17:15:27.494Z,2.80
2023-05-12T17:17:58.205Z,2.60
2023-05-12T17:20:29.395Z,3.30
2023-05-12T17:23:00.202Z,3.30
2023-05-12T17:25:31.082Z,2.50
2023-05-12T17:28:01.819Z,3.30
2023-05-12T17:30:32.565Z,2.60
2023-05-12T17:33:04.476Z,2.90
2023-05-12T17:35:35.176Z,2.60
2023-05-12T17:38:06.011Z,2.40
2023-05-12T17:40:36.887Z,2.50
2023-05-12T17:43:07.652Z,2.90
2023-05-12T17:45:38.316Z,3.20
2023-05-12T17:50:38.052Z,3.30
2023-05-12T17:55:39.566Z,2.80
2023-05-12T17:58:10.201Z,2.90
2023-05-12T18:03:10.029Z,3.30
2023-05-12T18:05:40.796Z,3.10
2023-05-12T18:10:40.562Z,3.90
2023-05-12T18:15:40.343Z,2.90
2023-05-12T18:18:11.227Z,2.80
2023-05-12T18:20:42.012Z,2.80
2023-05-12T18:23:12.858Z,3.20
2023-05-12T18:29:50.327Z,3.50
2023-05-12T18:34:50.141Z,3.40
2023-05-12T18:37:23.099Z,3.50
2023-05-12T18:39:53.837Z,3.10
2023-05-12T18:42:24.534Z,3.00
2023-05-12T18:44:55.305Z,3.00
2023-05-12T18:49:55.096Z,3.30
2023-05-12T18:52:25.810Z,3.20
2023-05-12T18:57:25.535Z,3.10
2023-05-12T18:59:56.254Z,3.00
2023-05-12T19:02:27.076Z,3.70
2023-05-12T19:04:57.892Z,4.20
2023-05-12T19:09:57.708Z,4.00
2023-05-12T19:12:28.796Z,3.40
2023-05-12T19:14:59.472Z,3.20
2023-05-12T19:17:31.548Z,3.10
2023-05-12T19:20:02.281Z,3.40
2023-05-12T19:22:33.067Z,3.60
2023-05-12T19:25:06.018Z,3.60
2023-05-12T19:27:36.751Z,3.80
2023-05-12T19:30:09.873Z,3.80
2023-05-12T19:32:40.623Z,3.70
2023-05-12T19:35:13.796Z,3.30
2023-05-12T19:37:45.296Z,3.90
2023-05-12T19:40:16.201Z,4.30
2023-05-12T19:45:16.078Z,3.60
2023-05-12T19:47:56.798Z,3.60
2023-05-12T19:52:56.982Z,4.00
2023-05-12T19:55:34.551Z,4.80
2023-05-12T19:58:05.179Z,4.90
2023-05-12T20:00:38.246Z,4.80
2023-05-12T20:03:09.971Z,4.70
2023-05-12T20:08:14.396Z,4.20
2023-05-12T20:10:47.945Z,5.00
2023-05-12T20:13:18.568Z,5.00
2023-05-12T20:15:49.302Z,4.60
2023-05-12T20:18:19.972Z,4.20
2023-05-12T20:20:53.338Z,3.90
2023-05-12T20:23:23.970Z,3.90
2023-05-12T20:25:57.120Z,4.00
2023-05-12T20:28:28.026Z,3.60
2023-05-12T20:33:47.763Z,3.80
2023-05-12T20:36:18.731Z,4.10
2023-05-12T20:38:49.609Z,3.70
2023-05-12T20:41:20.220Z,3.50
2023-05-12T20:43:50.890Z,3.70
2023-05-12T20:46:21.583Z,3.70
2023-05-12T20:48:52.246Z,4.10
2023-05-12T20:51:22.907Z,4.10
2023-05-12T20:53:53.920Z,4.00
2023-05-12T20:56:24.599Z,4.00
2023-05-12T20:58:55.324Z,3.50
2023-05-12T21:01:25.918Z,4.50
2023-05-12T21:03:56.682Z,3.80
2023-05-12T21:06:27.841Z,3.60
2023-05-12T21:08:58.503Z,3.50
2023-05-12T21:11:29.174Z,3.80
2023-05-12T21:13:59.865Z,3.60
2023-05-12T21:16:30.609Z,3.70
2023-05-12T21:19:03.836Z,3.30
2023-05-12T21:21:34.503Z,3.20
2023-05-12T21:24:05.805Z,3.80
2023-05-12T21:26:36.482Z,3.80
2023-05-12T21:29:07.072Z,3.40
2023-05-12T21:31:37.745Z,3.50
2023-05-12T21:34:08.373Z,3.60
2023-05-12T21:36:38.978Z,3.60
2023-05-12T21:39:09.558Z,3.80
2023-05-12T21:41:40.189Z,3.90
2023-05-12T21:44:11.439Z,3.90
2023-05-12T21:46:42.612Z,3.70
2023-05-12T21:51:42.446Z,3.80
2023-05-12T21:54:13.069Z,4.10
2023-05-12T21:56:43.679Z,3.30
2023-05-12T21:59:14.293Z,3.60
2023-05-12T22:01:45.028Z,3.70
2023-05-12T22:06:45.014Z,4.00
2023-05-12T22:09:15.774Z,3.60
2023-05-12T22:11:46.393Z,3.30
2023-05-12T22:14:16.986Z,4.40
2023-05-12T22:16:47.747Z,3.70
2023-05-12T22:19:21.931Z,3.50
2023-05-12T22:21:52.835Z,3.80
2023-05-12T22:24:23.428Z,3.90
2023-05-12T22:26:54.214Z,4.00
2023-05-12T22:29:24.819Z,3.80
2023-05-12T22:31:55.532Z,4.10
2023-05-12T22:34:26.249Z,3.80
2023-05-12T22:36:56.925Z,3.40
2023-05-12T22:39:27.492Z,3.80
2023-05-12T22:41:58.196Z,3.60
2023-05-12T22:44:28.881Z,4.30
2023-05-12T22:46:59.539Z,4.10
2023-05-12T22:49:30.190Z,3.80
2023-05-12T22:52:01.067Z,3.70
2023-05-12T22:57:00.853Z,4.50
2023-05-12T22:59:31.442Z,4.00
2023-05-12T23:02:02.404Z,4.10
2023-05-12T23:04:33.139Z,4.70
2023-05-12T23:07:04.111Z,3.90
2023-05-12T23:09:34.869Z,3.70
2023-05-12T23:12:07.959Z,3.80
2023-05-12T23:14:38.596Z,3.90
2023-05-12T23:17:09.380Z,3.80
2023-05-12T23:19:39.924Z,4.10
2023-05-12T23:24:39.990Z,3.60
2023-05-12T23:27:10.843Z,4.30
2023-05-12T23:29:41.414Z,3.80
2023-05-12T23:32:12.194Z,4.20
2023-05-12T23:34:42.959Z,4.30
2023-05-12T23:37:13.668Z,3.90
2023-05-12T23:39:44.367Z,4.10
2023-05-12T23:42:14.993Z,4.30
2023-05-12T23:44:45.884Z,4.00
2023-05-12T23:49:45.588Z,4.50
2023-05-12T23:52:16.220Z,3.70
2023-05-12T23:54:46.844Z,4.50
2023-05-12T23:57:17.574Z,3.80
2023-05-12T23:59:48.249Z,4.10
